Time;durP1;ratioP1;P1;durP2;ratioP2;P2;SDS_P1;SDS_P2;PMS_P1;PMS_P2;Temp;Humidity;BMP_temperature;BMP_pressure;BME280_temperature;BME280_humidity;BME280_pressure;Samples;Min_cycle;Max_cycle;Signal;HPM_P1;HPM_P2
2023/04/24 00:00:35;;;;;;;;;2.75;2.75;;;;;12.33;79.86;99703.16;4948202;28;10571;-70
2023/04/24 00:03:02;;;;;;;;;4.50;4.00;;;;;12.32;79.91;99696.13;4971399;28;9715;-70
2023/04/24 00:05:29;;;;;;;;;4.00;4.00;;;;;12.31;79.80;99694.47;4965118;28;9752;-69
2023/04/24 00:07:56;;;;;;;;;4.00;4.00;;;;;12.30;79.80;99700.91;4954318;28;9747;-70
2023/04/24 00:10:22;;;;;;;;;6.50;6.00;;;;;12.25;79.50;99708.91;4964791;28;10036;-70
2023/04/24 00:12:49;;;;;;;;;6.00;5.75;;;;;12.14;79.83;99715.09;4971999;28;10065;-69
2023/04/24 00:15:15;;;;;;;;;3.25;3.00;;;;;12.05;80.05;99725.41;4962119;28;9990;-70
2023/04/24 00:17:41;;;;;;;;;1.50;0.50;;;;;12.02;80.22;99723.16;4982986;28;9680;-70
2023/04/24 00:20:10;;;;;;;;;1.00;0.00;;;;;11.94;79.79;99731.56;4964549;28;9639;-70
2023/04/24 00:22:36;;;;;;;;;0.00;0.00;;;;;11.86;81.05;99745.38;4954078;28;9612;-70
2023/04/24 00:25:03;;;;;;;;;0.00;0.00;;;;;11.84;81.20;99747.50;4961760;28;9718;-70
2023/04/24 00:27:29;;;;;;;;;0.25;0.25;;;;;11.85;81.07;99755.34;4969497;28;9845;-69
2023/04/24 00:29:56;;;;;;;;;0.00;0.00;;;;;11.77;81.30;99752.94;4956250;28;9678;-70
2023/04/24 00:32:22;;;;;;;;;2.00;0.75;;;;;11.67;80.77;99771.56;4974375;28;9626;-71
2023/04/24 00:34:49;;;;;;;;;0.00;0.00;;;;;11.56;80.90;99775.00;4961094;28;9683;-70
2023/04/24 00:37:16;;;;;;;;;0.00;0.00;;;;;11.49;81.31;99771.56;4970246;28;9700;-70
2023/04/24 00:39:43;;;;;;;;;0.00;0.00;;;;;11.50;81.83;99776.72;4981097;28;9692;-68
2023/04/24 00:42:11;;;;;;;;;0.00;0.00;;;;;11.49;81.91;99782.34;4952824;28;9446;-70
2023/04/24 00:44:38;;;;;;;;;0.00;0.00;;;;;11.48;81.75;99786.09;4940055;28;9689;-69
2023/04/24 00:47:04;;;;;;;;;0.25;0.25;;;;;11.44;81.38;99790.31;4974195;28;9673;-70
2023/04/24 00:49:31;;;;;;;;;0.00;0.00;;;;;11.42;81.59;99789.69;4971908;28;9788;-70
2023/04/24 00:51:59;;;;;;;;;0.00;0.00;;;;;11.42;81.93;99792.38;4958083;28;9753;-68
2023/04/24 00:54:25;;;;;;;;;0.00;0.00;;;;;11.41;81.68;99790.75;4954431;28;9650;-68
2023/04/24 00:56:52;;;;;;;;;2.00;2.00;;;;;11.44;81.90;99799.19;4972694;28;9795;-68
2023/04/24 00:59:19;;;;;;;;;1.00;1.00;;;;;11.45;82.01;99800.03;4965261;28;9837;-71
2023/04/24 01:01:45;;;;;;;;;3.50;2.00;;;;;11.48;81.79;99802.28;4973321;28;9827;-71
2023/04/24 01:04:12;;;;;;;;;7.00;3.25;;;;;11.45;81.76;99805.41;4970527;28;9943;-68
2023/04/24 01:06:40;;;;;;;;;6.25;6.25;;;;;11.41;82.18;99805.03;4971161;28;10028;-70
2023/04/24 01:09:08;;;;;;;;;1.00;1.00;;;;;11.37;82.01;99809.22;4970253;28;9912;-68
2023/04/24 01:11:35;;;;;;;;;1.00;1.00;;;;;11.32;82.08;99812.59;4953205;28;9971;-68
2023/04/24 01:14:04;;;;;;;;;1.25;1.25;;;;;11.30;82.55;99811.16;4956292;28;9765;-66
2023/04/24 01:16:30;;;;;;;;;0.75;0.00;;;;;11.28;82.38;99807.88;4960883;28;9770;-67
2023/04/24 01:18:57;;;;;;;;;0.00;0.00;;;;;11.25;82.32;99806.44;4982402;28;9879;-70
2023/04/24 01:21:27;;;;;;;;;0.25;0.25;;;;;11.27;82.47;99806.25;4976808;28;9787;-69
2023/04/24 01:23:55;;;;;;;;;0.00;0.00;;;;;11.28;82.50;99816.78;4972275;28;9891;-68
2023/04/24 01:26:22;;;;;;;;;0.00;0.00;;;;;11.33;82.38;99813.41;4975725;28;9757;-69
2023/04/24 01:28:52;;;;;;;;;0.00;0.00;;;;;11.35;82.36;99817.53;4956402;28;9794;-68
2023/04/24 01:31:18;;;;;;;;;0.00;0.00;;;;;11.34;82.13;99823.13;4976936;28;9823;-68
2023/04/24 01:33:45;;;;;;;;;0.00;0.00;;;;;11.30;82.02;99814.72;4970222;28;9866;-67
2023/04/24 01:36:13;;;;;;;;;0.00;0.00;;;;;11.29;82.36;99823.00;4953638;28;9900;-69
2023/04/24 01:38:39;;;;;;;;;0.00;0.00;;;;;11.29;81.93;99823.00;4951447;28;9840;-67
2023/04/24 01:41:06;;;;;;;;;0.00;0.00;;;;;11.28;82.13;99821.34;4953429;28;9881;-68
2023/04/24 01:43:32;;;;;;;;;0.75;0.00;;;;;11.20;81.86;99825.16;4957244;28;9902;-69
2023/04/24 01:45:59;;;;;;;;;0.00;0.00;;;;;11.18;81.78;99823.72;4965636;28;9843;-67
2023/04/24 01:48:26;;;;;;;;;0.75;0.00;;;;;11.14;81.66;99831.47;4964087;28;9763;-69
2023/04/24 01:50:52;;;;;;;;;0.00;0.00;;;;;11.09;81.66;99826.72;4976709;28;9746;-68
2023/04/24 01:53:19;;;;;;;;;0.00;0.00;;;;;11.05;81.17;99822.00;4986680;28;9835;-69
2023/04/24 01:55:45;;;;;;;;;0.00;0.00;;;;;11.00;81.18;99822.66;4970578;28;9936;-67
2023/04/24 01:58:12;;;;;;;;;0.00;0.00;;;;;10.97;81.22;99830.38;4977223;28;10113;-69
2023/04/24 02:00:39;;;;;;;;;0.00;0.00;;;;;10.93;80.73;99823.78;4979538;28;10063;-67
2023/04/24 02:03:06;;;;;;;;;0.00;0.00;;;;;10.91;80.87;99831.25;4969904;28;9945;-69
2023/04/24 02:05:33;;;;;;;;;0.25;0.00;;;;;10.90;81.22;99830.44;4956646;28;10483;-69
2023/04/24 02:08:02;;;;;;;;;0.00;0.00;;;;;10.89;80.82;99832.28;4975773;28;9871;-68
2023/04/24 02:10:28;;;;;;;;;0.00;0.00;;;;;10.87;81.01;99833.56;4956523;28;9774;-69
2023/04/24 02:12:55;;;;;;;;;0.00;0.00;;;;;10.86;81.02;99832.75;4967767;28;10656;-69
2023/04/24 02:15:23;;;;;;;;;0.00;0.00;;;;;10.86;80.75;99834.63;4980177;28;9844;-69
2023/04/24 02:17:49;;;;;;;;;0.00;0.00;;;;;10.77;80.56;99831.34;4970685;28;10733;-69
2023/04/24 02:20:17;;;;;;;;;0.00;0.00;;;;;10.76;81.05;99842.34;4960533;28;10041;-67
2023/04/24 02:22:43;;;;;;;;;1.00;0.00;;;;;10.79;81.27;99840.06;4970398;28;9838;-69
2023/04/24 02:25:10;;;;;;;;;0.00;0.00;;;;;10.79;80.82;99844.63;4960855;28;9917;-67
2023/04/24 02:27:36;;;;;;;;;0.50;0.00;;;;;10.78;80.97;99849.19;4939983;28;9826;-69
2023/04/24 02:30:05;;;;;;;;;0.00;0.00;;;;;10.79;80.80;99845.44;4979097;28;9943;-68
2023/04/24 02:32:32;;;;;;;;;0.00;0.00;;;;;10.82;81.04;99844.19;4986057;28;9887;-67
2023/04/24 02:34:59;;;;;;;;;0.00;0.00;;;;;10.79;80.41;99837.38;4970143;28;9861;-69
2023/04/24 02:37:25;;;;;;;;;0.00;0.00;;;;;10.79;80.85;99847.31;4971022;28;9900;-69
2023/04/24 02:39:52;;;;;;;;;0.00;0.00;;;;;10.78;80.96;99838.41;4964481;28;10006;-69
2023/04/24 02:42:18;;;;;;;;;0.00;0.00;;;;;10.73;80.67;99840.09;4936844;28;10130;-69
2023/04/24 02:44:45;;;;;;;;;0.00;0.00;;;;;10.68;80.86;99840.75;4976603;28;9909;-67
2023/04/24 02:47:11;;;;;;;;;0.00;0.00;;;;;10.73;81.11;99851.69;4984100;28;9987;-68
2023/04/24 02:49:37;;;;;;;;;0.00;0.00;;;;;10.75;80.86;99844.22;4954238;28;9769;-69
2023/04/24 02:52:04;;;;;;;;;0.00;0.00;;;;;10.74;80.91;99845.28;4955995;28;10028;-69
2023/04/24 02:54:30;;;;;;;;;0.00;0.00;;;;;10.77;80.91;99844.00;4965546;28;9996;-69
2023/04/24 02:56:57;;;;;;;;;0.00;0.00;;;;;10.75;80.94;99852.31;4940053;28;9928;-67
2023/04/24 02:59:23;;;;;;;;;0.00;0.00;;;;;10.75;80.70;99851.47;4979868;28;9904;-68
2023/04/24 03:01:50;;;;;;;;;0.00;0.00;;;;;10.74;80.75;99844.47;4976227;28;9820;-69
2023/04/24 03:04:20;;;;;;;;;0.00;0.00;;;;;10.73;80.55;99845.47;4969207;28;9890;-69
2023/04/24 03:06:47;;;;;;;;;0.00;0.00;;;;;10.72;80.70;99839.28;4969722;28;10769;-67
2023/04/24 03:09:13;;;;;;;;;0.00;0.00;;;;;10.71;79.97;99851.09;4974281;28;9997;-68
2023/04/24 03:11:40;;;;;;;;;0.00;0.00;;;;;10.65;80.32;99841.19;4975783;28;10096;-69
2023/04/24 03:14:07;;;;;;;;;0.00;0.00;;;;;10.61;80.43;99842.66;4982638;28;10016;-69
2023/04/24 03:16:35;;;;;;;;;0.00;0.00;;;;;10.64;80.41;99842.25;4943479;28;9997;-67
2023/04/24 03:19:02;;;;;;;;;0.00;0.00;;;;;10.67;80.25;99846.38;4980532;28;10427;-68
2023/04/24 03:21:31;;;;;;;;;0.00;0.00;;;;;10.68;80.16;99846.16;4937827;28;9937;-69
2023/04/24 03:23:58;;;;;;;;;0.00;0.00;;;;;10.63;80.02;99845.97;4937838;28;10089;-68
2023/04/24 03:26:25;;;;;;;;;0.00;0.00;;;;;10.65;80.21;99843.88;4961943;28;9818;-68
2023/04/24 03:29:07;;;;;;;;;0.25;0.00;;;;;10.65;80.16;99838.50;4980482;28;9997;-69
2023/04/24 03:31:33;;;;;;;;;0.00;0.00;;;;;10.64;80.11;99847.63;4945679;28;10218;-69
2023/04/24 03:34:00;;;;;;;;;1.00;0.00;;;;;10.58;79.65;99848.50;4954587;28;9974;-67
2023/04/24 03:36:27;;;;;;;;;0.00;0.00;;;;;10.56;79.91;99855.97;4972708;28;10648;-69
2023/04/24 03:38:54;;;;;;;;;0.00;0.00;;;;;10.58;80.04;99846.66;4973015;28;10046;-67
2023/04/24 03:41:24;;;;;;;;;0.00;0.00;;;;;10.61;79.89;99845.38;4956635;28;10077;-69
2023/04/24 03:44:00;;;;;;;;;0.00;0.00;;;;;10.59;80.25;99850.16;4962223;28;10004;-65
2023/04/24 03:46:26;;;;;;;;;0.00;0.00;;;;;10.59;79.93;99860.91;4948821;28;10051;-66
2023/04/24 03:48:57;;;;;;;;;0.00;0.00;;;;;10.53;79.93;99853.69;4958378;28;9996;-69
2023/04/24 03:51:30;;;;;;;;;0.00;0.00;;;;;10.55;80.52;99854.31;4937354;28;10158;-69
2023/04/24 03:54:03;;;;;;;;;0.00;0.00;;;;;10.58;80.40;99853.91;4936750;28;10156;-68
2023/04/24 03:56:31;;;;;;;;;0.00;0.00;;;;;10.59;80.16;99863.63;4944512;28;10645;-68
2023/04/24 03:58:57;;;;;;;;;0.00;0.00;;;;;10.58;80.54;99849.34;4980511;28;10723;-69
2023/04/24 04:01:24;;;;;;;;;0.00;0.00;;;;;10.57;80.29;99860.28;4969043;28;10087;-69
2023/04/24 04:03:57;;;;;;;;;0.00;0.00;;;;;10.55;80.68;99862.41;4954732;28;10110;-67
2023/04/24 04:06:26;;;;;;;;;0.75;0.00;;;;;10.49;80.58;99855.19;4972475;28;9981;-69
2023/04/24 04:08:54;;;;;;;;;0.00;0.00;;;;;10.48;80.35;99864.31;4944469;28;10122;-68
2023/04/24 04:11:20;;;;;;;;;0.00;0.00;;;;;10.49;80.50;99865.94;4958392;28;10061;-69
2023/04/24 04:13:47;;;;;;;;;0.00;0.00;;;;;10.52;80.79;99873.59;4991157;28;9896;-69
2023/04/24 04:16:17;;;;;;;;;0.00;0.00;;;;;10.52;80.81;99887.88;4954287;28;10258;-69
2023/04/24 04:18:45;;;;;;;;;0.00;0.00;;;;;10.54;80.61;99891.19;4946402;28;9912;-68
2023/04/24 04:21:12;;;;;;;;;0.00;0.00;;;;;10.57;80.85;99887.22;4953371;28;10045;-68
2023/04/24 04:23:40;;;;;;;;;0.00;0.00;;;;;10.58;81.03;99896.94;4956249;28;9914;-69
2023/04/24 04:26:13;;;;;;;;;0.00;0.00;;;;;10.57;80.55;99897.97;4980503;28;9998;-69
2023/04/24 04:29:00;;;;;;;;;0.00;0.00;;;;;10.57;80.51;99901.50;4968727;28;9920;-67
2023/04/24 04:31:27;;;;;;;;;0.00;0.00;;;;;10.57;81.07;99900.66;4940457;28;10708;-67
2023/04/24 04:33:56;;;;;;;;;0.00;0.00;;;;;10.57;81.08;99906.03;4936362;28;10033;-67
2023/04/24 04:36:23;;;;;;;;;0.00;0.00;;;;;10.57;80.85;99911.44;4952337;28;10082;-68
2023/04/24 04:38:59;;;;;;;;;0.00;0.00;;;;;10.55;80.40;99917.03;4949212;28;9983;-69
2023/04/24 04:41:44;;;;;;;;;0.00;0.00;;;;;10.52;80.69;99922.03;4979025;28;11238;-69
2023/04/24 04:44:10;;;;;;;;;0.00;0.00;;;;;10.50;80.84;99924.94;4971725;28;9992;-68
2023/04/24 04:46:38;;;;;;;;;0.00;0.00;;;;;10.44;80.35;99923.09;4952566;28;9975;-69
2023/04/24 04:49:11;;;;;;;;;0.00;0.00;;;;;10.42;80.94;99937.81;4953558;28;10924;-69
2023/04/24 04:51:38;;;;;;;;;0.00;0.00;;;;;10.41;80.73;99939.66;4955830;28;9987;-69
2023/04/24 04:54:07;;;;;;;;;0.00;0.00;;;;;10.40;80.82;99927.25;5004866;23;10055;-66
2023/04/24 04:56:35;;;;;;;;;0.00;0.00;;;;;10.42;80.64;99938.66;4979196;28;9846;-66
2023/04/24 04:59:02;;;;;;;;;0.00;0.00;;;;;10.42;80.48;99937.81;5010096;28;9826;-66
2023/04/24 05:01:30;;;;;;;;;0.00;0.00;;;;;10.43;80.30;99948.38;4992806;28;10147;-66
2023/04/24 05:03:56;;;;;;;;;0.00;0.00;;;;;10.39;80.53;99949.84;5000239;28;10015;-67
2023/04/24 05:06:23;;;;;;;;;0.00;0.00;;;;;10.37;80.59;99950.06;5002183;28;9999;-67
2023/04/24 05:08:51;;;;;;;;;0.00;0.00;;;;;10.36;80.62;99952.94;4997096;28;9985;-66
2023/04/24 05:11:29;;;;;;;;;0.00;0.00;;;;;10.36;80.67;99955.63;4974246;28;9992;-66
2023/04/24 05:13:57;;;;;;;;;0.00;0.00;;;;;10.34;80.58;99957.72;4974512;28;10251;-66
2023/04/24 05:16:32;;;;;;;;;0.00;0.00;;;;;10.31;81.02;99958.97;5004334;28;10105;-66
2023/04/24 05:18:58;;;;;;;;;0.00;0.00;;;;;10.31;81.07;99961.66;5009839;28;10069;-66
2023/04/24 05:21:31;;;;;;;;;0.00;0.00;;;;;10.29;81.08;99963.75;4963266;28;10149;-66
2023/04/24 05:23:57;;;;;;;;;0.00;0.00;;;;;10.25;80.75;99975.97;4981801;28;10848;-66
2023/04/24 05:26:44;;;;;;;;;0.00;0.00;;;;;10.22;81.06;99979.06;4987940;28;10217;-67
2023/04/24 05:29:12;;;;;;;;;1.00;1.00;;;;;10.18;81.39;99980.53;4988921;28;10106;-67
2023/04/24 05:31:38;;;;;;;;;0.00;0.00;;;;;10.16;81.69;99993.34;4981208;28;10088;-66
2023/04/24 05:34:05;;;;;;;;;1.00;0.25;;;;;10.15;82.01;99995.22;4973047;28;10225;-66
2023/04/24 05:36:32;;;;;;;;;4.00;2.00;;;;;10.13;82.21;100002.69;4978859;28;10135;-66
2023/04/24 05:38:59;;;;;;;;;5.75;5.75;;;;;10.05;82.88;100008.28;4967441;28;10900;-67
2023/04/24 05:41:25;;;;;;;;;11.00;11.00;;;;;10.00;82.37;100020.69;4982531;28;10406;-66
2023/04/24 05:43:52;;;;;;;;;9.75;9.00;;;;;9.91;83.10;100012.84;4974874;28;10521;-66
2023/04/24 05:46:20;;;;;;;;;15.00;14.50;;;;;9.78;83.32;100031.69;4970760;28;11236;-66
2023/04/24 05:48:46;;;;;;;;;11.25;11.25;;;;;9.66;83.17;100036.06;4999805;28;10816;-66
2023/04/24 05:51:13;;;;;;;;;11.25;9.00;;;;;9.63;84.08;100049.91;5004081;28;10958;-66
2023/04/24 05:53:39;;;;;;;;;18.50;16.75;;;;;9.66;83.87;100058.38;4973558;28;10658;-66
2023/04/24 05:56:06;;;;;;;;;18.50;16.50;;;;;9.60;83.94;100045.78;4986811;28;10873;-66
2023/04/24 05:58:34;;;;;;;;;12.75;10.75;;;;;9.46;83.51;100064.78;4970768;28;10966;-66
2023/04/24 06:01:01;;;;;;;;;19.25;16.75;;;;;9.40;83.49;100072.66;4985917;28;10926;-65
2023/04/24 06:03:28;;;;;;;;;22.50;18.00;;;;;9.41;83.74;100085.03;5010108;28;10977;-65
2023/04/24 06:05:55;;;;;;;;;15.75;14.75;;;;;9.39;83.65;100084.41;4994853;28;10932;-66
2023/04/24 06:08:22;;;;;;;;;18.75;18.75;;;;;9.43;83.62;100098.25;4973129;28;10847;-67
2023/04/24 06:10:49;;;;;;;;;23.00;19.50;;;;;9.44;83.88;100082.97;4973609;28;10857;-67
2023/04/24 06:13:17;;;;;;;;;21.00;19.25;;;;;9.41;83.56;100100.31;4989569;28;10951;-66
2023/04/24 06:16:02;;;;;;;;;24.75;17.50;;;;;9.37;83.44;100107.97;5008229;28;10992;-67
2023/04/24 06:18:33;;;;;;;;;16.75;14.75;;;;;9.34;83.58;100108.38;5009675;28;10931;-66
2023/04/24 06:21:00;;;;;;;;;17.00;17.00;;;;;9.30;83.70;100112.50;4993280;28;11134;-66
2023/04/24 06:23:26;;;;;;;;;19.00;16.50;;;;;9.30;83.49;100131.28;4989510;28;10991;-66
2023/04/24 06:25:53;;;;;;;;;19.50;17.50;;;;;9.27;83.30;100131.69;4994003;28;10960;-65
2023/04/24 06:28:19;;;;;;;;;21.75;17.00;;;;;9.25;84.01;100139.13;4973178;28;11003;-66
2023/04/24 06:30:46;;;;;;;;;17.75;15.75;;;;;9.24;83.40;100150.09;4988182;28;11086;-66
2023/04/24 06:33:12;;;;;;;;;16.75;16.75;;;;;9.33;83.91;100152.38;4996907;28;11756;-65
2023/04/24 06:35:44;;;;;;;;;14.25;12.75;;;;;9.38;83.18;100165.19;5000160;28;11018;-66
2023/04/24 06:38:11;;;;;;;;;15.00;15.00;;;;;9.40;83.69;100163.97;4994524;28;10859;-65
2023/04/24 06:40:37;;;;;;;;;12.75;12.75;;;;;9.38;83.23;100174.06;5007247;28;10868;-67
2023/04/24 06:43:06;;;;;;;;;16.50;16.00;;;;;9.34;82.76;100178.19;4994821;28;10878;-66
2023/04/24 06:45:32;;;;;;;;;11.50;11.50;;;;;9.40;83.23;100179.25;4987149;28;10946;-66
2023/04/24 06:47:59;;;;;;;;;16.75;14.75;;;;;9.43;83.13;100188.75;5014338;28;11758;-66
2023/04/24 06:50:25;;;;;;;;;17.25;14.50;;;;;9.39;82.22;100188.34;4984691;28;11021;-67
2023/04/24 06:52:52;;;;;;;;;13.25;13.00;;;;;9.29;81.94;100204.03;4992866;28;10947;-67
2023/04/24 06:55:18;;;;;;;;;18.00;14.00;;;;;9.28;82.14;100203.19;5000921;28;11050;-66
2023/04/24 06:57:45;;;;;;;;;14.00;13.25;;;;;9.31;82.61;100215.38;4993371;28;11571;-67
2023/04/24 07:00:12;;;;;;;;;12.00;12.00;;;;;9.31;82.56;100210.81;4977130;28;10829;-66
2023/04/24 07:02:38;;;;;;;;;16.75;16.00;;;;;9.27;83.13;100212.25;4993860;28;10814;-66
2023/04/24 07:05:06;;;;;;;;;13.25;12.75;;;;;9.34;83.09;100217.66;4984298;28;10922;-66
2023/04/24 07:07:34;;;;;;;;;15.25;11.75;;;;;9.39;82.78;100220.56;4979338;28;10867;-66
2023/04/24 07:10:00;;;;;;;;;16.00;12.50;;;;;9.34;81.98;100223.03;5000424;28;10710;-67
2023/04/24 07:12:26;;;;;;;;;13.50;13.25;;;;;9.35;82.36;100225.50;5013761;28;10888;-67
2023/04/24 07:14:54;;;;;;;;;9.75;9.75;;;;;9.38;81.56;100238.53;5006045;28;10730;-67
2023/04/24 07:17:20;;;;;;;;;14.25;12.00;;;;;9.33;82.31;100245.56;4994347;28;10632;-67
2023/04/24 07:19:46;;;;;;;;;16.00;11.75;;;;;9.37;82.05;100250.31;4977911;28;10860;-67
2023/04/24 07:22:16;;;;;;;;;15.25;13.75;;;;;9.37;81.97;100255.69;5008203;28;10714;-66
2023/04/24 07:24:45;;;;;;;;;2.00;2.00;;;;;9.37;82.61;100265.63;5012286;28;10812;-67
2023/04/24 07:27:12;;;;;;;;;9.75;9.75;;;;;9.26;81.63;100263.50;5011506;28;10781;-67
2023/04/24 07:29:39;;;;;;;;;8.50;8.50;;;;;9.23;82.52;100253.97;5007933;28;10884;-67
2023/04/24 07:32:05;;;;;;;;;9.75;5.75;;;;;9.23;82.65;100275.44;4993361;28;10839;-67
2023/04/24 07:34:32;;;;;;;;;11.50;8.00;;;;;9.24;82.77;100279.00;4988002;28;10756;-66
2023/04/24 07:36:59;;;;;;;;;10.50;10.50;;;;;9.18;82.61;100277.91;4973918;28;10603;-67
2023/04/24 07:39:26;;;;;;;;;3.00;3.00;;;;;9.13;82.94;100291.94;4980747;28;10539;-67
2023/04/24 07:41:52;;;;;;;;;7.50;6.00;;;;;9.15;83.12;100294.41;4995180;28;10580;-66
2023/04/24 07:44:19;;;;;;;;;8.75;7.25;;;;;9.18;83.21;100302.09;5002785;28;10543;-66
2023/04/24 07:46:46;;;;;;;;;2.75;2.75;;;;;9.08;82.30;100305.13;5013019;28;10674;-66
2023/04/24 07:49:13;;;;;;;;;3.50;2.00;;;;;9.07;82.92;100313.38;5011184;28;10519;-67
2023/04/24 07:51:42;;;;;;;;;5.75;4.00;;;;;8.97;83.46;100329.03;4975737;28;10446;-67
2023/04/24 07:54:08;;;;;;;;;5.00;3.75;;;;;8.91;83.12;100330.63;4993621;28;10445;-66
2023/04/24 07:56:38;;;;;;;;;5.00;3.00;;;;;8.95;83.80;100341.78;5012776;28;10463;-67
2023/04/24 07:59:05;;;;;;;;;3.50;2.75;;;;;8.96;83.14;100343.47;4999093;28;10633;-66
2023/04/24 08:01:32;;;;;;;;;8.00;5.50;;;;;8.96;83.35;100344.31;4995240;28;10508;-66
2023/04/24 08:03:58;;;;;;;;;5.75;5.00;;;;;8.99;83.18;100351.09;4975228;28;11270;-67
2023/04/24 08:06:29;;;;;;;;;7.00;7.00;;;;;8.93;82.88;100352.72;4992453;28;10759;-66
2023/04/24 08:08:56;;;;;;;;;2.00;2.00;;;;;8.99;83.35;100361.84;4975389;28;10548;-66
2023/04/24 08:11:24;;;;;;;;;5.50;5.50;;;;;8.96;82.64;100360.41;4993107;28;10616;-65
2023/04/24 08:13:50;;;;;;;;;4.00;1.50;;;;;8.98;82.68;100368.25;4992659;28;10602;-67
2023/04/24 08:16:17;;;;;;;;;5.00;4.00;;;;;8.98;82.25;100374.44;5010606;28;10546;-66
2023/04/24 08:18:44;;;;;;;;;6.25;4.50;;;;;9.03;82.67;100381.91;5003102;28;11307;-66
2023/04/24 08:21:12;;;;;;;;;4.00;2.00;;;;;9.13;82.65;100391.28;4992969;28;10484;-66
2023/04/24 08:23:39;;;;;;;;;3.75;2.00;;;;;9.14;81.74;100395.63;4975153;28;11126;-65
2023/04/24 08:26:07;;;;;;;;;2.00;2.00;;;;;9.07;81.26;100396.59;4988483;28;10964;-66
2023/04/24 08:28:33;;;;;;;;;4.25;3.00;;;;;9.00;80.69;100404.63;4992523;28;10425;-66
2023/04/24 08:31:00;;;;;;;;;2.50;1.00;;;;;8.98;80.48;100416.56;5008644;28;10516;-66
2023/04/24 08:33:26;;;;;;;;;2.00;1.25;;;;;9.00;79.98;100420.72;4992775;28;10464;-66
2023/04/24 08:35:53;;;;;;;;;4.75;2.00;;;;;9.01;79.39;100421.56;5001802;28;10475;-66
2023/04/24 08:38:19;;;;;;;;;5.50;4.50;;;;;9.05;78.76;100429.03;5012007;28;10440;-66
2023/04/24 08:40:49;;;;;;;;;2.00;2.00;;;;;9.14;78.74;100427.03;4997408;28;10481;-65
2023/04/24 08:43:16;;;;;;;;;1.25;1.25;;;;;9.22;79.03;100426.06;4991953;28;10617;-66
2023/04/24 08:45:43;;;;;;;;;2.00;2.00;;;;;9.27;77.79;100437.03;5003316;28;11030;-66
2023/04/24 08:48:10;;;;;;;;;1.00;1.00;;;;;9.28;77.99;100431.47;4990543;28;10504;-66
2023/04/24 08:50:53;;;;;;;;;5.00;2.75;;;;;9.21;77.64;100444.03;4984823;28;10421;-66
2023/04/24 08:53:19;;;;;;;;;1.00;1.00;;;;;9.18;77.97;100448.94;5010479;28;10434;-67
2023/04/24 08:55:48;;;;;;;;;2.25;1.25;;;;;9.19;77.31;100448.75;4986960;28;10305;-66
2023/04/24 08:58:16;;;;;;;;;1.00;1.00;;;;;9.16;77.21;100451.84;4972468;28;10226;-66
2023/04/24 09:00:46;;;;;;;;;5.50;1.75;;;;;9.15;77.51;100455.53;4993322;28;10210;-65
2023/04/24 09:03:15;;;;;;;;;2.00;2.00;;;;;9.11;77.26;100460.47;4982554;28;10392;-65
2023/04/24 09:05:45;;;;;;;;;2.00;2.00;;;;;9.12;77.42;100459.44;4999084;28;10358;-66
2023/04/24 09:08:13;;;;;;;;;1.50;1.50;;;;;9.14;77.51;100459.25;5011612;28;10448;-66
2023/04/24 09:10:40;;;;;;;;;1.50;1.50;;;;;9.14;76.41;100467.31;4993072;28;10497;-67
2023/04/24 09:13:09;;;;;;;;;2.00;2.00;;;;;9.12;76.59;100482.78;4972377;28;10322;-65
2023/04/24 09:15:37;;;;;;;;;2.75;1.75;;;;;9.11;76.12;100470.38;5001760;28;10409;-66
2023/04/24 09:18:04;;;;;;;;;5.50;1.00;;;;;9.10;75.51;100476.78;5010139;28;10434;-66
2023/04/24 09:20:32;;;;;;;;;1.00;1.00;;;;;9.21;75.69;100476.25;5010478;28;10510;-66
2023/04/24 09:22:59;;;;;;;;;3.50;2.00;;;;;9.21;75.68;100476.25;5010937;28;10359;-66
2023/04/24 09:25:33;;;;;;;;;1.50;1.50;;;;;9.27;75.69;100483.53;4999153;28;10360;-66
2023/04/24 09:28:03;;;;;;;;;3.00;1.50;;;;;9.39;75.67;100491.88;4989838;28;10492;-66
2023/04/24 09:30:30;;;;;;;;;1.00;1.00;;;;;9.44;75.87;100486.78;4974168;28;10583;-66
2023/04/24 09:33:30;;;;;;;;;3.00;1.25;;;;;9.40;74.39;100490.88;4989939;28;10390;-67
2023/04/24 09:35:56;;;;;;;;;1.00;1.00;;;;;9.40;74.27;100499.75;4926651;28;10540;-67
2023/04/24 09:38:37;;;;;;;;;1.00;1.00;;;;;9.44;74.94;100502.88;4971811;28;10367;-67
2023/04/24 09:41:08;;;;;;;;;1.00;0.00;;;;;9.43;74.76;100497.69;5004879;28;10574;-66
2023/04/24 09:43:35;;;;;;;;;1.00;1.00;;;;;9.39;73.65;100510.69;4990009;28;10192;-67
2023/04/24 09:46:07;;;;;;;;;1.50;1.25;;;;;9.39;74.56;100508.81;4986388;28;10224;-66
2023/04/24 09:48:35;;;;;;;;;1.00;0.00;;;;;9.44;74.48;100510.94;4971728;28;10288;-66
2023/04/24 09:51:06;;;;;;;;;4.25;4.00;;;;;9.53;74.55;100520.53;5005723;28;10130;-66
2023/04/24 09:53:33;;;;;;;;;3.00;1.50;;;;;9.64;74.16;100524.50;4993258;28;10510;-66
2023/04/24 09:56:07;;;;;;;;;1.00;1.00;;;;;9.68;74.34;100525.78;4976379;28;11092;-66
2023/04/24 09:58:37;;;;;;;;;0.00;0.00;;;;;9.77;74.04;100518.41;4990504;28;10332;-66
2023/04/24 10:01:04;;;;;;;;;1.00;1.00;;;;;9.73;73.01;100523.34;4991906;28;10150;-66
2023/04/24 10:03:32;;;;;;;;;1.00;1.00;;;;;9.69;73.17;100532.84;4973689;28;10246;-66
2023/04/24 10:06:08;;;;;;;;;1.00;1.00;;;;;9.66;72.76;100539.41;4988967;28;10210;-66
2023/04/24 10:08:37;;;;;;;;;1.25;1.25;;;;;9.79;73.11;100543.22;4973789;28;10297;-67
2023/04/24 10:11:03;;;;;;;;;4.75;1.00;;;;;9.89;72.19;100539.19;4991194;28;10062;-66
2023/04/24 10:13:30;;;;;;;;;2.25;1.00;;;;;9.95;71.42;100534.84;4990759;28;10795;-67
2023/04/24 10:16:00;;;;;;;;;0.50;0.00;;;;;9.89;70.19;100547.25;5006117;28;10165;-66
2023/04/24 10:18:27;;;;;;;;;0.00;0.00;;;;;9.79;70.49;100549.44;5007409;28;10228;-66
2023/04/24 10:20:54;;;;;;;;;0.50;0.50;;;;;9.70;71.19;100556.00;4988227;28;10161;-66
2023/04/24 10:23:21;;;;;;;;;0.00;0.00;;;;;9.62;71.03;100564.19;5010282;28;10330;-67
2023/04/24 10:25:49;;;;;;;;;1.00;0.00;;;;;9.60;69.62;100558.16;4995288;28;10089;-67
2023/04/24 10:28:18;;;;;;;;;0.00;0.00;;;;;9.54;70.90;100575.09;4990904;28;10099;-65
2023/04/24 10:30:45;;;;;;;;;0.00;0.00;;;;;9.62;71.64;100574.94;5004402;28;10064;-65
2023/04/24 10:33:13;;;;;;;;;2.00;0.00;;;;;9.76;71.76;100582.06;4999548;28;10262;-66
2023/04/24 10:35:44;;;;;;;;;0.00;0.00;;;;;9.74;72.80;100578.75;5003137;28;10142;-66
2023/04/24 10:38:15;;;;;;;;;0.00;0.00;;;;;9.82;72.67;100583.16;5010591;28;10226;-66
2023/04/24 10:40:42;;;;;;;;;1.75;1.00;;;;;9.78;72.87;100582.72;4996513;28;10070;-67
2023/04/24 10:43:12;;;;;;;;;0.00;0.00;;;;;9.81;73.60;100582.34;4991541;28;10226;-66
2023/04/24 10:45:39;;;;;;;;;0.00;0.00;;;;;9.94;73.49;100576.22;5003071;28;10064;-66
2023/04/24 10:48:10;;;;;;;;;0.00;0.00;;;;;10.11;73.83;100584.81;4974758;28;10017;-66
2023/04/24 10:50:45;;;;;;;;;0.00;0.00;;;;;10.28;72.53;100585.34;5002138;28;10226;-66
2023/04/24 10:53:15;;;;;;;;;0.75;0.00;;;;;10.49;72.45;100571.81;5010348;28;10254;-67
2023/04/24 10:55:57;;;;;;;;;1.00;0.00;;;;;10.59;71.58;100579.50;4996124;28;9898;-67
2023/04/24 10:58:38;;;;;;;;;1.00;0.00;;;;;10.69;71.03;100577.25;4990172;28;10030;-66
2023/04/24 11:01:04;;;;;;;;;0.00;0.00;;;;;10.79;70.72;100583.09;4995480;28;9916;-66
2023/04/24 11:03:32;;;;;;;;;0.00;0.00;;;;;10.83;69.21;100587.03;4990174;28;9908;-66
2023/04/24 11:06:04;;;;;;;;;1.00;0.00;;;;;10.91;68.66;100583.34;5006029;28;9951;-66
2023/04/24 11:08:38;;;;;;;;;1.00;1.00;;;;;10.95;68.57;100594.53;5010088;28;9743;-67
2023/04/24 11:11:17;;;;;;;;;1.00;0.00;;;;;10.94;67.94;100598.25;4992866;28;9767;-67
2023/04/24 11:13:56;;;;;;;;;0.00;0.00;;;;;10.86;68.25;100602.81;4990076;28;9957;-68
2023/04/24 11:16:33;;;;;;;;;2.50;0.00;;;;;10.84;67.69;100612.09;4974410;28;9776;-67
2023/04/24 11:19:11;;;;;;;;;0.00;0.00;;;;;10.79;67.83;100609.19;4994443;28;9822;-66
2023/04/24 11:21:58;;;;;;;;;0.25;0.25;;;;;10.85;67.81;100603.00;4993675;28;9743;-67
2023/04/24 11:24:46;;;;;;;;;0.00;0.00;;;;;10.91;67.27;100601.38;4994507;28;9889;-67
2023/04/24 11:27:20;;;;;;;;;0.00;0.00;;;;;10.78;66.84;100603.00;4995950;28;9773;-67
2023/04/24 11:29:55;;;;;;;;;1.00;0.00;;;;;10.67;66.93;100617.00;4998652;28;9967;-67
2023/04/24 11:32:24;;;;;;;;;0.00;0.00;;;;;10.64;66.34;100610.16;4993647;28;9738;-67
2023/04/24 11:34:54;;;;;;;;;0.00;0.00;;;;;10.81;66.11;100609.81;4993666;28;10502;-67
2023/04/24 11:37:22;;;;;;;;;0.00;0.00;;;;;11.12;64.89;100610.13;4993639;28;9763;-67
2023/04/24 11:39:58;;;;;;;;;0.00;0.00;;;;;11.54;64.30;100613.50;4999508;28;9878;-67